Accueil
METAR-TAF:

METAR-TAF

Aéroports :

Valladolid, Espagne

Aéroport de Valladolid

latitude: 41-43N, longitude: 004-51W, altitude: 849 m

Observation

Le bulletin a été fait il y a 8 heures et 27 minutes, à 20:30 UTC
Vent 8 kt de nord-est
Température 3°C
Humidité 81%
Pression 1026 hPa
Visibilité 10 km ou plus
Nuages fragmentés à une hauteur de 4900 ft

METAR: LEVD 172030Z 05008KT 9999 BKN049 03/M00 Q1026

Heure: 05:57 (04:57 UTC)

Prévision

Le bulletin a été fait il y a 5 heures et 57 minutes, à 23:00 UTC
Prévision valable du 18 à 00 UTC au 18 à 24 UTC
Vent 8 kt de nord-est
Visibilité 10 km ou plus
Nuages fragmentés à une hauteur de 4500 ft

TAF: LEVD 172300Z 1800/1824 05008KT 9999 BKN045 TX11/1815Z TN00/1806Z

Observations et prévisions météorologiques de plus de 4000 aéroports (messages METAR et TAF).

Les stations disponibles sont représentées par des disques jaunes et rouges sur la carte.

Passer la souris dessus pour voir le nom de la station.

Cliquer dessus pour voir les observations et prévisions météorologiques.

Pour changer de carte: cliquez sur les boutons verts avec une croix noire pour zoomer, sur le bouton vert avec un tiret pour effectuer un zoom arrière, ou sur les flèches vertes pour les cartes adjacentes.


METAR-TAF: